Time;durP1;ratioP1;P1;durP2;ratioP2;P2;SDS_P1;SDS_P2;PMS_P1;PMS_P2;Temp;Humidity;BMP_temperature;BMP_pressure;BME280_temperature;BME280_humidity;BME280_pressure;Samples;Min_cycle;Max_cycle;Signal;HPM_P1;HPM_P2
2021/12/27 00:00:22;;;;;;;27.52;17.13;;;-0.80;99.90;;;;;;4759698;29;20078;-87
2021/12/27 00:02:51;;;;;;;31.50;17.70;;;-0.90;99.90;;;;;;4763118;30;20082;-87
2021/12/27 00:05:17;;;;;;;36.13;18.92;;;-0.90;99.90;;;;;;4776604;29;20054;-87
2021/12/27 00:07:47;;;;;;;33.33;17.27;;;-0.90;99.90;;;;;;4757984;30;20428;-87
2021/12/27 00:10:13;;;;;;;35.30;18.58;;;-1.00;99.90;;;;;;4762255;29;20043;-87
2021/12/27 00:12:40;;;;;;;32.15;18.10;;;-0.90;99.90;;;;;;4762522;30;20557;-87
2021/12/27 00:15:08;;;;;;;32.83;17.45;;;-1.00;99.90;;;;;;4747667;29;20319;-84
2021/12/27 00:17:33;;;;;;;36.17;19.60;;;-1.00;99.90;;;;;;4776475;29;20104;-86
2021/12/27 00:19:59;;;;;;;35.05;18.27;;;-1.00;99.90;;;;;;4775698;29;20074;-87
2021/12/27 00:22:25;;;;;;;38.90;19.23;;;-1.00;99.90;;;;;;4746899;29;20039;-86
2021/12/27 00:24:51;;;;;;;34.22;18.02;;;-0.90;99.90;;;;;;4739657;30;20081;-85
2021/12/27 00:27:18;;;;;;;35.20;18.35;;;-0.90;99.90;;;;;;4744278;29;20056;-86
2021/12/27 00:29:44;;;;;;;40.22;18.23;;;-0.90;99.90;;;;;;4755926;30;20544;-87
2021/12/27 00:32:11;;;;;;;36.25;18.52;;;-0.80;99.90;;;;;;4754497;29;20035;-86
2021/12/27 00:34:37;;;;;;;37.53;18.60;;;-0.80;99.90;;;;;;4758994;30;20389;-86
2021/12/27 00:37:04;;;;;;;33.67;18.27;;;-0.80;99.90;;;;;;4760004;30;20566;-85
2021/12/27 00:39:30;;;;;;;34.25;18.42;;;-0.90;99.90;;;;;;4757332;30;20067;-85
2021/12/27 00:41:56;;;;;;;37.20;18.38;;;-0.90;99.90;;;;;;4759756;30;20171;-85
2021/12/27 00:44:22;;;;;;;33.88;18.10;;;-0.80;99.90;;;;;;4757619;29;20518;-86
2021/12/27 00:46:47;;;;;;;36.20;19.15;;;-0.90;99.90;;;;;;4748077;30;20043;-85
2021/12/27 00:49:13;;;;;;;37.20;18.20;;;-0.80;99.90;;;;;;4758990;29;20472;-86
2021/12/27 00:51:39;;;;;;;38.55;19.73;;;-0.80;99.90;;;;;;4760657;29;20551;-86
2021/12/27 00:54:05;;;;;;;35.13;17.98;;;-0.80;99.90;;;;;;4762948;29;20411;-87
2021/12/27 00:56:30;;;;;;;30.73;17.95;;;-0.80;99.90;;;;;;4747387;30;20043;-86
2021/12/27 00:58:56;;;;;;;31.77;18.60;;;-0.80;99.90;;;;;;4746847;30;20127;-85
2021/12/27 01:01:22;;;;;;;35.20;19.30;;;-0.80;99.90;;;;;;4741381;29;20140;-87
2021/12/27 01:03:48;;;;;;;33.60;19.45;;;-0.80;99.90;;;;;;4747397;30;20051;-87
2021/12/27 01:06:13;;;;;;;33.40;18.65;;;-0.80;99.90;;;;;;4757456;29;20054;-87
2021/12/27 01:08:40;;;;;;;32.05;18.98;;;-0.70;99.90;;;;;;4773976;29;20070;-86
2021/12/27 01:11:46;;;;;;;35.47;19.77;;;-0.70;99.90;;;;;;4746860;29;20051;-87
2021/12/27 01:16:48;;;;;;;34.65;18.17;;;-0.70;99.90;;;;;;4761639;29;20602;-87
2021/12/27 01:19:14;;;;;;;35.88;18.75;;;-0.80;99.90;;;;;;4745594;29;20089;-86
2021/12/27 01:21:40;;;;;;;33.08;18.00;;;-0.70;99.90;;;;;;4745664;30;20054;-86
2021/12/27 01:24:06;;;;;;;39.00;20.17;;;-0.70;99.90;;;;;;4740849;29;20135;-88
2021/12/27 01:26:32;;;;;;;32.17;17.67;;;-0.70;99.90;;;;;;4730824;30;20050;-88
2021/12/27 01:29:00;;;;;;;32.83;18.60;;;-0.70;99.90;;;;;;4755151;29;20408;-87
2021/12/27 01:31:26;;;;;;;35.67;18.73;;;-0.70;99.90;;;;;;4758678;29;20047;-88
2021/12/27 01:33:52;;;;;;;35.15;19.05;;;-0.60;99.90;;;;;;4769112;29;20044;-87
2021/12/27 01:36:18;;;;;;;37.50;19.55;;;-0.70;99.90;;;;;;4757344;29;20069;-87
2021/12/27 01:38:46;;;;;;;34.78;18.55;;;-0.70;99.90;;;;;;4758006;30;20731;-86
2021/12/27 01:41:17;;;;;;;34.70;19.85;;;-0.60;99.90;;;;;;4757471;29;20043;-85
2021/12/27 01:43:43;;;;;;;36.67;20.08;;;-0.70;99.90;;;;;;4760937;29;20659;-87
2021/12/27 01:46:15;;;;;;;33.33;19.38;;;-0.60;99.90;;;;;;4771133;29;20131;-87
2021/12/27 01:48:53;;;;;;;36.13;20.35;;;-0.70;99.90;;;;;;4760815;30;20085;-86
2021/12/27 01:51:19;;;;;;;33.65;19.25;;;-0.60;99.90;;;;;;4759102;29;20225;-87
2021/12/27 01:53:46;;;;;;;39.42;21.10;;;-0.70;99.90;;;;;;4758566;30;20096;-87
2021/12/27 01:56:14;;;;;;;33.83;19.90;;;-0.60;99.90;;;;;;4767345;29;20051;-86
2021/12/27 01:58:41;;;;;;;34.92;17.92;;;-0.70;99.90;;;;;;4762594;30;20100;-87
2021/12/27 02:01:09;;;;;;;35.22;19.73;;;-0.60;99.90;;;;;;4762183;29;20043;-86
2021/12/27 02:03:36;;;;;;;37.00;19.52;;;-0.60;99.90;;;;;;4762827;29;20126;-88
2021/12/27 02:06:05;;;;;;;34.35;19.85;;;-0.60;99.90;;;;;;4760679;30;20139;-87
2021/12/27 02:08:31;;;;;;;35.55;19.83;;;-0.60;99.90;;;;;;4758458;30;20043;-86
2021/12/27 02:10:57;;;;;;;38.08;19.35;;;-0.60;99.90;;;;;;4759006;29;20043;-86
2021/12/27 02:13:23;;;;;;;35.85;20.25;;;-0.60;99.90;;;;;;4750751;29;20049;-87
2021/12/27 02:15:50;;;;;;;39.28;20.15;;;-0.60;99.90;;;;;;4748231;30;20035;-87
2021/12/27 02:18:16;;;;;;;36.15;20.20;;;-0.60;99.90;;;;;;4743630;29;20053;-86
2021/12/27 02:20:43;;;;;;;38.15;21.05;;;-0.60;99.90;;;;;;4733397;30;20051;-86
2021/12/27 02:23:15;;;;;;;33.40;19.30;;;-0.50;99.90;;;;;;4761956;29;20389;-86
2021/12/27 02:25:46;;;;;;;33.58;20.35;;;-0.50;99.90;;;;;;4762057;30;20051;-87
2021/12/27 02:28:12;;;;;;;36.72;21.02;;;-0.60;99.90;;;;;;4773587;29;20043;-87
2021/12/27 02:30:41;;;;;;;33.95;19.08;;;-0.60;99.90;;;;;;4754657;30;20082;-87
2021/12/27 02:33:08;;;;;;;36.05;20.70;;;-0.50;99.90;;;;;;4762540;29;20039;-87
2021/12/27 02:35:40;;;;;;;37.80;20.08;;;-0.50;99.90;;;;;;4759591;30;20070;-86
2021/12/27 02:38:10;;;;;;;35.90;20.67;;;-0.50;99.90;;;;;;4772013;29;20162;-87
2021/12/27 02:40:38;;;;;;;35.15;19.85;;;-0.50;99.90;;;;;;4754410;30;20039;-87
2021/12/27 02:43:09;;;;;;;38.15;21.25;;;-0.50;99.90;;;;;;4745398;30;20131;-87
2021/12/27 02:45:41;;;;;;;36.50;20.60;;;-0.50;99.90;;;;;;4770345;29;20496;-87
2021/12/27 02:48:09;;;;;;;39.25;20.48;;;-0.50;99.90;;;;;;4772603;29;20051;-87
2021/12/27 02:50:35;;;;;;;40.53;21.33;;;-0.50;99.90;;;;;;4746744;29;20047;-86
2021/12/27 02:53:04;;;;;;;39.45;21.08;;;-0.50;99.90;;;;;;4754518;30;20411;-86
2021/12/27 02:55:30;;;;;;;37.05;20.75;;;-0.50;99.90;;;;;;4754396;30;20039;-87
2021/12/27 02:57:56;;;;;;;37.03;20.60;;;-0.50;99.90;;;;;;4757441;30;20039;-87
2021/12/27 03:00:28;;;;;;;40.17;21.23;;;-0.50;99.90;;;;;;4759225;29;20451;-86
2021/12/27 03:02:54;;;;;;;37.50;20.58;;;-0.50;99.90;;;;;;4771605;29;20090;-88
2021/12/27 03:05:23;;;;;;;39.67;21.10;;;-0.50;99.90;;;;;;4742476;29;20043;-86
2021/12/27 03:07:50;;;;;;;37.85;19.98;;;-0.40;99.90;;;;;;4759479;30;20105;-86
2021/12/27 03:10:20;;;;;;;33.75;20.13;;;-0.40;99.90;;;;;;4758714;29;20056;-87
2021/12/27 03:12:48;;;;;;;36.58;20.52;;;-0.40;99.90;;;;;;4752014;30;20055;-87
2021/12/27 03:15:15;;;;;;;37.85;21.80;;;-0.40;99.90;;;;;;4771476;29;20449;-87
2021/12/27 03:17:44;;;;;;;38.22;20.50;;;-0.40;99.90;;;;;;4770975;29;20039;-86
2021/12/27 03:20:12;;;;;;;38.83;21.65;;;-0.30;99.90;;;;;;4756095;29;20361;-86
2021/12/27 03:22:40;;;;;;;39.60;21.33;;;-0.40;99.90;;;;;;4755791;30;20420;-86
2021/12/27 03:25:08;;;;;;;35.00;19.52;;;-0.40;99.90;;;;;;4761000;29;20048;-86
2021/12/27 03:27:34;;;;;;;37.28;20.80;;;-0.40;99.90;;;;;;4745268;29;20103;-86
2021/12/27 03:30:00;;;;;;;39.05;22.15;;;-0.30;99.90;;;;;;4742375;29;20043;-87
2021/12/27 03:32:25;;;;;;;38.63;21.08;;;-0.30;99.90;;;;;;4767390;29;20251;-87
2021/12/27 03:34:57;;;;;;;42.13;22.38;;;-0.30;99.90;;;;;;4752575;30;20035;-86
2021/12/27 03:37:24;;;;;;;38.70;21.38;;;-0.40;99.90;;;;;;4758280;29;20691;-87
2021/12/27 03:39:51;;;;;;;37.17;20.25;;;-0.30;99.90;;;;;;4755836;30;20051;-87
2021/12/27 03:42:17;;;;;;;40.60;21.23;;;-0.30;99.90;;;;;;4753756;29;20158;-86
2021/12/27 03:44:44;;;;;;;38.58;19.95;;;-0.30;99.90;;;;;;4757799;29;20044;-86
2021/12/27 03:47:11;;;;;;;39.97;21.23;;;-0.30;99.90;;;;;;4759358;29;20128;-87
2021/12/27 03:49:37;;;;;;;39.92;21.48;;;-0.30;99.90;;;;;;4759842;30;20591;-87
2021/12/27 03:52:04;;;;;;;36.90;21.40;;;-0.30;99.90;;;;;;4771724;29;20051;-87
2021/12/27 03:54:30;;;;;;;33.95;19.67;;;-0.30;99.90;;;;;;4755798;30;20043;-87
2021/12/27 03:56:55;;;;;;;36.38;20.10;;;-0.30;99.90;;;;;;4753618;30;20086;-86
2021/12/27 04:02:14;;;;;;;35.78;21.17;;;-0.20;99.90;;;;;;4753022;29;20047;-86
2021/12/27 04:04:41;;;;;;;37.70;20.15;;;-0.20;99.90;;;;;;4763820;29;20047;-86
2021/12/27 04:07:08;;;;;;;42.15;22.05;;;-0.30;99.90;;;;;;4758486;29;20523;-86
2021/12/27 04:09:35;;;;;;;42.05;21.55;;;-0.30;99.90;;;;;;4768728;29;20051;-86
2021/12/27 04:12:01;;;;;;;37.33;21.55;;;-0.20;99.90;;;;;;4779562;29;20048;-87
2021/12/27 04:14:27;;;;;;;35.22;20.88;;;-0.20;99.90;;;;;;4761713;29;20500;-86
2021/12/27 04:16:54;;;;;;;39.25;21.52;;;-0.20;99.90;;;;;;4757168;30;20137;-86
2021/12/27 04:19:19;;;;;;;37.53;20.10;;;-0.20;99.90;;;;;;4762364;29;20054;-85
2021/12/27 04:21:45;;;;;;;41.63;22.08;;;-0.20;99.90;;;;;;4756425;30;20423;-86
2021/12/27 04:24:11;;;;;;;42.58;21.90;;;-0.20;99.90;;;;;;4762407;29;20047;-86
2021/12/27 04:26:37;;;;;;;38.47;21.15;;;-0.20;99.90;;;;;;4743678;30;20673;-85
2021/12/27 04:29:04;;;;;;;36.55;21.35;;;-0.10;99.90;;;;;;4759773;30;20519;-87
2021/12/27 04:31:30;;;;;;;42.60;23.08;;;-0.20;99.90;;;;;;4762427;30;20097;-86
2021/12/27 04:33:56;;;;;;;43.50;22.33;;;-0.20;99.90;;;;;;4762281;30;20039;-86
2021/12/27 04:36:21;;;;;;;40.97;20.52;;;-0.20;99.90;;;;;;4776688;29;20396;-86
2021/12/27 04:38:47;;;;;;;38.85;21.88;;;-0.20;99.90;;;;;;4749957;29;20051;-86
2021/12/27 04:41:16;;;;;;;38.42;21.38;;;-0.10;99.90;;;;;;4772407;29;20518;-86
2021/12/27 04:43:42;;;;;;;38.55;21.90;;;-0.20;99.90;;;;;;4759502;29;20058;-86
2021/12/27 04:46:08;;;;;;;39.10;20.77;;;-0.30;99.90;;;;;;4744492;29;20346;-86
2021/12/27 04:48:34;;;;;;;37.22;22.00;;;-0.20;99.90;;;;;;4761423;30;20058;-86
2021/12/27 04:50:59;;;;;;;39.45;20.73;;;-0.20;99.90;;;;;;4769564;29;20048;-85
2021/12/27 04:53:25;;;;;;;38.03;21.05;;;-0.10;99.90;;;;;;4763365;29;20051;-86
2021/12/27 04:55:51;;;;;;;34.92;20.65;;;-0.20;99.90;;;;;;4747281;30;20530;-86
2021/12/27 04:58:20;;;;;;;42.13;22.70;;;-0.20;99.90;;;;;;4744006;29;20555;-87
2021/12/27 05:00:46;;;;;;;44.38;22.77;;;-0.10;99.90;;;;;;4760282;30;20317;-86
2021/12/27 05:03:12;;;;;;;44.13;23.90;;;-0.10;99.90;;;;;;4762089;30;20043;-86
2021/12/27 05:05:41;;;;;;;41.20;22.20;;;-0.20;99.90;;;;;;4757142;30;20047;-87
2021/12/27 05:08:07;;;;;;;42.55;22.33;;;-0.20;99.90;;;;;;4775004;29;21769;-87
2021/12/27 05:10:35;;;;;;;41.60;22.67;;;0.00;99.90;;;;;;4746776;30;20143;-87
2021/12/27 05:13:00;;;;;;;41.72;22.55;;;-0.10;99.90;;;;;;4760656;30;20039;-87
2021/12/27 05:15:26;;;;;;;45.97;23.33;;;-0.20;99.90;;;;;;4760522;29;20057;-87
2021/12/27 05:17:52;;;;;;;38.63;21.33;;;-0.10;99.90;;;;;;4761283;30;20542;-86
2021/12/27 05:20:18;;;;;;;42.22;22.48;;;-0.10;99.90;;;;;;4762648;29;20084;-85
2021/12/27 05:22:44;;;;;;;39.92;21.15;;;-0.10;99.90;;;;;;4757424;30;20474;-86
2021/12/27 05:25:16;;;;;;;44.33;22.77;;;-0.10;99.90;;;;;;4755172;29;20058;-86
2021/12/27 05:27:42;;;;;;;39.07;21.83;;;-0.10;99.90;;;;;;4761786;30;20472;-87
2021/12/27 05:30:09;;;;;;;40.45;21.55;;;-0.10;99.90;;;;;;4741567;29;20048;-86
2021/12/27 05:32:38;;;;;;;42.72;22.95;;;-0.10;99.90;;;;;;4761878;30;20105;-87
2021/12/27 05:35:05;;;;;;;38.95;22.60;;;-0.10;99.90;;;;;;4758916;30;20047;-86
2021/12/27 05:37:31;;;;;;;42.03;23.02;;;-0.10;99.90;;;;;;4768084;29;20122;-86
2021/12/27 05:40:04;;;;;;;41.15;22.05;;;-0.10;99.90;;;;;;4770662;29;20043;-86
2021/12/27 05:42:31;;;;;;;44.20;23.15;;;-0.10;99.90;;;;;;4753620;30;20040;-86
2021/12/27 05:44:56;;;;;;;40.70;21.40;;;-0.10;99.90;;;;;;4760947;30;22044;-86
2021/12/27 05:47:22;;;;;;;43.83;22.00;;;-0.10;99.90;;;;;;4742781;29;20160;-86
2021/12/27 05:49:48;;;;;;;38.58;22.58;;;-0.10;99.90;;;;;;4758897;30;20050;-86
2021/12/27 05:52:14;;;;;;;40.30;22.33;;;-0.10;99.90;;;;;;4741904;29;20474;-87
2021/12/27 05:54:39;;;;;;;40.30;22.05;;;0.00;99.90;;;;;;4763178;30;20035;-85
2021/12/27 05:57:05;;;;;;;44.38;24.08;;;0.00;99.90;;;;;;4729863;29;20388;-86
2021/12/27 05:59:31;;;;;;;45.58;23.13;;;0.00;99.90;;;;;;4747570;30;20048;-87
2021/12/27 06:01:56;;;;;;;43.05;22.80;;;0.00;99.90;;;;;;4759491;29;20057;-85
2021/12/27 06:04:22;;;;;;;45.53;23.02;;;0.00;99.90;;;;;;4756017;29;20056;-87
2021/12/27 06:06:48;;;;;;;44.78;22.25;;;0.00;99.90;;;;;;4743315;30;20071;-86
2021/12/27 06:09:14;;;;;;;40.63;22.77;;;0.10;99.90;;;;;;4741197;29;20070;-86
2021/12/27 06:11:40;;;;;;;47.53;24.42;;;0.00;99.90;;;;;;4761650;30;20043;-87
2021/12/27 06:14:05;;;;;;;47.72;24.92;;;-0.10;99.90;;;;;;4756378;29;20040;-87
2021/12/27 06:16:31;;;;;;;50.92;26.05;;;0.10;99.90;;;;;;4746474;30;20124;-87
2021/12/27 06:18:57;;;;;;;48.35;25.55;;;0.00;99.90;;;;;;4761182;30;20834;-85
2021/12/27 06:21:23;;;;;;;47.10;24.88;;;0.10;99.90;;;;;;4762758;29;20524;-87
2021/12/27 06:23:49;;;;;;;47.90;26.13;;;0.00;99.90;;;;;;4765998;30;20039;-86
2021/12/27 06:26:15;;;;;;;53.67;26.08;;;0.00;99.90;;;;;;4761039;29;20051;-86
2021/12/27 06:28:41;;;;;;;45.15;25.15;;;0.00;99.90;;;;;;4759713;30;20051;-86
2021/12/27 06:31:07;;;;;;;46.10;25.15;;;0.00;99.90;;;;;;4744913;29;20120;-86
2021/12/27 06:33:33;;;;;;;52.70;25.38;;;0.00;99.90;;;;;;4742062;30;20093;-87
2021/12/27 06:35:58;;;;;;;52.17;26.48;;;0.00;99.90;;;;;;4757538;30;20039;-87
2021/12/27 06:38:24;;;;;;;51.10;25.67;;;0.00;99.90;;;;;;4753979;29;20050;-86
2021/12/27 06:40:51;;;;;;;49.00;26.88;;;0.00;99.90;;;;;;4770859;29;20417;-87
2021/12/27 06:43:18;;;;;;;46.97;24.42;;;0.00;99.90;;;;;;4758946;30;20051;-86
2021/12/27 06:45:44;;;;;;;50.65;26.65;;;0.00;99.90;;;;;;4771876;29;20051;-87
2021/12/27 06:48:10;;;;;;;51.83;24.65;;;0.00;99.90;;;;;;4758656;29;20104;-85
2021/12/27 06:50:36;;;;;;;49.55;25.95;;;0.00;99.90;;;;;;4752990;30;20051;-87
2021/12/27 06:53:02;;;;;;;46.65;24.00;;;0.00;99.90;;;;;;4758759;30;20047;-87
2021/12/27 06:55:28;;;;;;;53.60;25.25;;;0.00;99.90;;;;;;4762386;29;20039;-87
2021/12/27 06:57:54;;;;;;;58.17;27.92;;;0.00;99.90;;;;;;4758225;30;20073;-87
2021/12/27 07:00:20;;;;;;;51.80;27.45;;;0.00;99.90;;;;;;4761252;29;20134;-87
2021/12/27 07:02:46;;;;;;;49.10;26.40;;;0.00;99.90;;;;;;4756495;30;20203;-87
2021/12/27 07:05:12;;;;;;;50.15;25.80;;;0.10;99.90;;;;;;4744739;29;20625;-88
2021/12/27 07:07:39;;;;;;;53.60;25.83;;;0.10;99.90;;;;;;4755977;30;20087;-87
2021/12/27 07:10:07;;;;;;;55.25;26.75;;;0.10;99.90;;;;;;4754435;29;20043;-87
2021/12/27 07:12:33;;;;;;;52.35;29.58;;;0.10;99.90;;;;;;4745962;30;20322;-87
2021/12/27 07:14:59;;;;;;;54.58;27.60;;;0.10;99.90;;;;;;4758341;30;20130;-87
2021/12/27 07:17:26;;;;;;;54.17;27.38;;;0.10;99.90;;;;;;4755260;29;20141;-88
2021/12/27 07:19:52;;;;;;;52.58;25.90;;;0.10;99.90;;;;;;4744597;30;20043;-86
2021/12/27 07:22:18;;;;;;;57.55;27.92;;;0.10;99.90;;;;;;4743167;30;20047;-87
2021/12/27 07:24:44;;;;;;;59.75;28.60;;;0.10;99.90;;;;;;4744302;30;20039;-86
2021/12/27 07:27:10;;;;;;;60.42;27.35;;;0.10;99.90;;;;;;4766721;29;20108;-87
2021/12/27 07:29:37;;;;;;;59.28;28.50;;;0.10;99.90;;;;;;4763087;29;20491;-87
2021/12/27 07:32:03;;;;;;;55.80;27.70;;;0.20;99.90;;;;;;4742976;29;20078;-87
2021/12/27 07:34:29;;;;;;;58.47;29.00;;;0.10;99.90;;;;;;4743398;30;20484;-87
2021/12/27 07:36:56;;;;;;;54.75;28.05;;;0.10;99.90;;;;;;4764493;30;20134;-87
2021/12/27 07:39:23;;;;;;;49.38;26.38;;;0.20;99.90;;;;;;4766998;29;20531;-86
2021/12/27 07:41:49;;;;;;;55.47;27.75;;;0.10;99.90;;;;;;4738058;30;20183;-87
2021/12/27 07:44:15;;;;;;;54.72;27.15;;;0.20;99.90;;;;;;4763180;29;20047;-87
2021/12/27 07:46:42;;;;;;;54.30;26.38;;;0.10;99.90;;;;;;4764686;30;20122;-86
2021/12/27 07:49:10;;;;;;;54.42;27.27;;;0.20;99.90;;;;;;4764192;29;20051;-87
2021/12/27 07:51:36;;;;;;;59.83;27.35;;;0.20;99.90;;;;;;4764736;29;20048;-87
2021/12/27 07:54:02;;;;;;;54.65;26.20;;;0.20;99.90;;;;;;4753890;30;20043;-87
2021/12/27 07:56:28;;;;;;;54.35;27.13;;;0.20;99.90;;;;;;4755090;29;20437;-87
2021/12/27 07:58:54;;;;;;;56.92;25.40;;;0.20;99.90;;;;;;4747710;29;20046;-86
2021/12/27 08:01:19;;;;;;;59.80;28.38;;;0.30;99.90;;;;;;4766230;29;20448;-85
2021/12/27 08:03:45;;;;;;;59.63;27.13;;;0.20;99.90;;;;;;4763549;30;20122;-85
2021/12/27 08:06:11;;;;;;;62.53;29.30;;;0.30;99.90;;;;;;4765890;29;20058;-85
2021/12/27 08:08:37;;;;;;;59.63;27.65;;;0.30;99.90;;;;;;4751664;30;20047;-86
2021/12/27 08:11:03;;;;;;;62.92;27.17;;;0.30;99.90;;;;;;4769542;30;20114;-86
2021/12/27 08:13:29;;;;;;;65.03;28.35;;;0.40;99.90;;;;;;4766374;30;20108;-86
2021/12/27 08:15:55;;;;;;;62.00;28.35;;;0.30;99.90;;;;;;4766252;30;20096;-86
2021/12/27 08:18:21;;;;;;;67.60;27.65;;;0.40;99.90;;;;;;4750083;29;20050;-86
2021/12/27 08:20:48;;;;;;;62.70;28.77;;;0.40;99.90;;;;;;4763395;30;20167;-88
2021/12/27 08:23:15;;;;;;;69.60;28.85;;;0.40;99.90;;;;;;4779729;29;20051;-87
2021/12/27 08:25:41;;;;;;;59.42;26.88;;;0.40;99.90;;;;;;4750080;29;20151;-86
2021/12/27 08:28:07;;;;;;;66.03;27.20;;;0.40;99.90;;;;;;4779382;29;20051;-86
2021/12/27 08:30:33;;;;;;;70.70;29.10;;;0.40;99.90;;;;;;4753039;30;20407;-86
2021/12/27 08:32:59;;;;;;;63.60;28.08;;;0.40;99.90;;;;;;4779916;29;20047;-86
2021/12/27 08:35:26;;;;;;;64.80;28.33;;;0.50;99.90;;;;;;4751942;29;20043;-86
2021/12/27 08:37:53;;;;;;;61.67;27.73;;;0.50;99.90;;;;;;4747279;30;20047;-87
2021/12/27 08:40:19;;;;;;;69.32;27.98;;;0.40;99.90;;;;;;4771705;29;20100;-86
2021/12/27 08:42:45;;;;;;;69.22;28.88;;;0.50;99.90;;;;;;4732446;30;20051;-89
2021/12/27 08:45:11;;;;;;;66.53;26.85;;;0.50;99.90;;;;;;4752937;29;20103;-86
2021/12/27 08:47:38;;;;;;;69.45;28.45;;;0.50;99.90;;;;;;4760725;29;20468;-86
2021/12/27 08:50:06;;;;;;;71.10;26.77;;;0.50;99.90;;;;;;4749944;30;20043;-86
2021/12/27 08:52:33;;;;;;;70.28;28.23;;;0.60;99.90;;;;;;4776090;29;20374;-87
2021/12/27 08:55:02;;;;;;;79.50;29.50;;;0.60;99.90;;;;;;4748468;30;20393;-87
2021/12/27 08:57:28;;;;;;;69.82;27.27;;;0.60;99.90;;;;;;4764393;29;20354;-86
2021/12/27 08:59:54;;;;;;;69.45;26.63;;;0.60;99.90;;;;;;4747477;30;20116;-87
2021/12/27 09:02:20;;;;;;;72.28;27.00;;;0.60;99.90;;;;;;4767135;29;20055;-87
2021/12/27 09:04:46;;;;;;;72.35;28.27;;;0.60;99.90;;;;;;4748286;30;20086;-87
2021/12/27 09:07:12;;;;;;;78.97;29.90;;;0.70;99.90;;;;;;4753302;29;20039;-87
2021/12/27 09:09:39;;;;;;;78.07;29.10;;;0.70;99.90;;;;;;4758320;29;20053;-87
2021/12/27 09:12:06;;;;;;;88.53;29.50;;;0.70;99.90;;;;;;4784265;29;20054;-87
2021/12/27 09:14:32;;;;;;;88.00;29.92;;;0.70;99.90;;;;;;4749313;30;20044;-88
2021/12/27 09:16:58;;;;;;;97.45;31.48;;;0.70;99.90;;;;;;4752859;29;20061;-89
2021/12/27 09:19:24;;;;;;;102.93;33.90;;;0.70;99.90;;;;;;4764913;29;21190;-87
2021/12/27 09:21:52;;;;;;;90.95;32.47;;;0.80;99.90;;;;;;4746241;30;20123;-87
2021/12/27 09:24:18;;;;;;;107.45;32.92;;;0.90;99.90;;;;;;4751722;29;20095;-87
2021/12/27 09:26:44;;;;;;;92.63;31.02;;;0.90;99.90;;;;;;4761548;30;20311;-86
2021/12/27 09:29:10;;;;;;;104.43;31.48;;;0.90;99.90;;;;;;4747999;29;20621;-88
2021/12/27 09:31:36;;;;;;;90.93;32.67;;;1.00;99.90;;;;;;4773073;29;20047;-87
2021/12/27 09:34:02;;;;;;;94.07;31.67;;;1.00;99.90;;;;;;4755717;30;20133;-87
2021/12/27 09:36:28;;;;;;;108.72;32.50;;;1.00;99.90;;;;;;4752757;29;20042;-87
2021/12/27 09:38:54;;;;;;;101.53;31.95;;;1.00;99.90;;;;;;4761626;29;20507;-87
2021/12/27 09:41:20;;;;;;;98.85;31.42;;;1.00;99.90;;;;;;4773218;29;20109;-86
2021/12/27 09:43:47;;;;;;;104.72;33.72;;;1.10;99.90;;;;;;4758668;29;20070;-87
2021/12/27 09:46:13;;;;;;;94.00;31.38;;;1.10;99.90;;;;;;4778560;29;20046;-89
2021/12/27 09:48:40;;;;;;;92.10;31.77;;;1.00;99.90;;;;;;4759948;30;20051;-89
2021/12/27 09:51:07;;;;;;;99.57;33.00;;;1.20;99.90;;;;;;4768152;29;20545;-87
2021/12/27 09:53:33;;;;;;;98.82;30.35;;;1.10;99.90;;;;;;4763457;29;20054;-86
2021/12/27 09:55:59;;;;;;;110.28;34.50;;;1.20;99.90;;;;;;4744389;30;20046;-86
2021/12/27 09:58:25;;;;;;;99.43;32.22;;;1.20;99.90;;;;;;4742194;29;20046;-87
2021/12/27 10:00:51;;;;;;;91.13;30.92;;;1.20;99.90;;;;;;4742916;30;20044;-89
2021/12/27 10:03:19;;;;;;;96.00;32.33;;;1.20;99.90;;;;;;4742708;29;20053;-87
2021/12/27 10:05:45;;;;;;;102.20;33.60;;;1.20;99.90;;;;;;4734218;29;20039;-88
2021/12/27 10:08:11;;;;;;;98.50;32.90;;;1.20;99.90;;;;;;4755295;29;20053;-87
2021/12/27 10:10:37;;;;;;;115.65;35.60;;;1.30;99.90;;;;;;4748223;30;20134;-87
2021/12/27 10:13:10;;;;;;;124.32;36.55;;;1.30;99.90;;;;;;4758305;30;20055;-89
2021/12/27 10:15:44;;;;;;;105.78;34.20;;;1.30;99.90;;;;;;4762185;29;20038;-86
2021/12/27 10:18:12;;;;;;;122.05;35.35;;;1.30;99.90;;;;;;4760589;29;20031;-87
2021/12/27 10:20:39;;;;;;;132.10;35.13;;;1.40;99.90;;;;;;4764582;29;20047;-86
2021/12/27 10:23:05;;;;;;;119.00;35.03;;;1.30;99.90;;;;;;4736076;29;20051;-86
2021/12/27 10:25:31;;;;;;;122.18;34.10;;;1.40;99.90;;;;;;4746607;30;20133;-86
2021/12/27 10:27:59;;;;;;;105.95;34.45;;;1.40;99.90;;;;;;4766837;30;20051;-90
2021/12/27 10:30:28;;;;;;;117.88;35.45;;;1.50;99.90;;;;;;4765525;29;20108;-90
2021/12/27 10:33:21;;;;;;;111.15;33.88;;;1.40;99.90;;;;;;4766431;29;20074;-90
2021/12/27 10:35:58;;;;;;;113.72;33.42;;;1.50;99.90;;;;;;4761350;30;20054;-89
2021/12/27 10:38:33;;;;;;;104.32;32.42;;;1.50;99.90;;;;;;4768150;29;20086;-89
2021/12/27 10:41:00;;;;;;;120.68;34.67;;;1.60;99.90;;;;;;4764055;30;20441;-89
2021/12/27 10:43:47;;;;;;;110.22;32.65;;;1.50;99.90;;;;;;4761817;29;20104;-89
2021/12/27 10:46:16;;;;;;;105.72;32.38;;;1.60;99.90;;;;;;4768313;29;20061;-90
2021/12/27 10:48:46;;;;;;;106.68;31.63;;;1.70;99.90;;;;;;4768875;29;20094;-89
2021/12/27 10:51:12;;;;;;;104.35;32.70;;;1.60;99.90;;;;;;4782641;29;20074;-89
2021/12/27 10:53:47;;;;;;;112.03;32.17;;;1.60;99.90;;;;;;4763091;29;20626;-89
2021/12/27 10:56:15;;;;;;;116.80;35.35;;;1.70;99.90;;;;;;4772397;29;20043;-90
2021/12/27 10:58:52;;;;;;;124.43;33.85;;;1.70;99.90;;;;;;4748696;30;20039;-89
2021/12/27 11:01:20;;;;;;;98.70;31.90;;;1.70;99.90;;;;;;4787786;29;20048;-89
2021/12/27 11:03:54;;;;;;;125.25;33.97;;;1.70;99.90;;;;;;4750793;30;20048;-88
2021/12/27 11:06:22;;;;;;;108.18;34.28;;;1.80;99.90;;;;;;4766540;29;20089;-90
2021/12/27 11:31:25;;;;;;;127.55;36.55;;;1.80;99.90;;;;;;4805315;29;20047;-90
2021/12/27 11:34:12;;;;;;;140.25;37.15;;;1.80;99.90;;;;;;4790885;29;20283;-92
2021/12/27 11:36:53;;;;;;;113.13;34.03;;;1.80;99.90;;;;;;4790176;29;20069;-92
2021/12/27 11:39:27;;;;;;;141.43;35.95;;;1.80;99.90;;;;;;4790492;29;20081;-93
2021/12/27 11:42:21;;;;;;;142.32;36.10;;;1.90;99.90;;;;;;4789889;29;20050;-92
2021/12/27 11:44:56;;;;;;;125.72;36.05;;;1.90;99.90;;;;;;4792347;29;20111;-92
2021/12/27 11:47:28;;;;;;;156.32;36.55;;;1.90;99.90;;;;;;4793235;29;20141;-91
2021/12/27 11:50:02;;;;;;;139.68;36.65;;;1.90;99.90;;;;;;4804960;29;20129;-92
2021/12/27 11:52:33;;;;;;;135.38;38.35;;;1.90;99.90;;;;;;4789001;29;20083;-93
2021/12/27 11:55:02;;;;;;;142.70;36.85;;;1.90;99.90;;;;;;4785722;29;20039;-91
2021/12/27 11:57:40;;;;;;;176.75;37.88;;;1.90;99.90;;;;;;4797539;29;20507;-90
2021/12/27 12:00:23;;;;;;;158.73;41.53;;;1.90;99.90;;;;;;4789621;29;20558;-91
2021/12/27 12:03:07;;;;;;;151.60;34.53;;;1.90;99.90;;;;;;4771757;29;20046;-91
2021/12/27 12:05:51;;;;;;;138.80;35.22;;;1.90;99.90;;;;;;4774264;29;20342;-91
2021/12/27 12:08:37;;;;;;;137.30;35.63;;;1.90;99.90;;;;;;4764945;30;20039;-92
2021/12/27 12:11:13;;;;;;;144.55;37.55;;;1.90;99.90;;;;;;4789632;29;20058;-91
2021/12/27 12:13:44;;;;;;;183.77;42.00;;;1.90;99.90;;;;;;4790615;29;20438;-91
2021/12/27 12:16:18;;;;;;;135.35;35.78;;;1.90;99.90;;;;;;4782800;29;20047;-91
2021/12/27 12:18:53;;;;;;;157.57;39.40;;;2.10;99.90;;;;;;4790004;29;20505;-91
2021/12/27 12:21:34;;;;;;;154.68;39.45;;;2.10;99.90;;;;;;4790737;29;20038;-91
2021/12/27 12:24:06;;;;;;;128.63;34.03;;;2.10;99.90;;;;;;4795542;29;20049;-91
2021/12/27 12:26:54;;;;;;;140.27;35.33;;;2.20;99.90;;;;;;4786685;29;20464;-92
2021/12/27 12:29:21;;;;;;;144.32;34.70;;;2.20;99.90;;;;;;4787702;29;20089;-92
2021/12/27 12:31:48;;;;;;;124.40;35.10;;;2.20;99.90;;;;;;4782974;29;20070;-91
2021/12/27 12:34:15;;;;;;;159.73;36.92;;;2.20;99.90;;;;;;4788701;29;20402;-90
2021/12/27 12:36:52;;;;;;;142.48;36.13;;;2.20;99.90;;;;;;4788123;29;20047;-91
2021/12/27 12:39:19;;;;;;;128.98;33.97;;;2.20;99.90;;;;;;4787918;29;20050;-92
2021/12/27 12:41:46;;;;;;;158.90;39.20;;;2.30;99.90;;;;;;4787166;29;20176;-93
2021/12/27 12:44:12;;;;;;;149.18;38.10;;;2.20;99.90;;;;;;4772037;29;20042;-93
2021/12/27 12:46:43;;;;;;;151.60;38.25;;;2.20;99.90;;;;;;4787176;29;20118;-91
2021/12/27 12:49:22;;;;;;;136.05;36.55;;;2.20;99.90;;;;;;4787500;29;20506;-90
2021/12/27 12:51:55;;;;;;;169.18;38.42;;;2.20;99.90;;;;;;4792509;29;20038;-88
2021/12/27 12:54:23;;;;;;;118.95;32.33;;;2.20;99.90;;;;;;4800334;29;20055;-90
2021/12/27 12:56:56;;;;;;;177.43;38.28;;;2.20;99.90;;;;;;4791147;29;20078;-91
2021/12/27 12:59:52;;;;;;;158.13;37.45;;;2.20;99.90;;;;;;4787047;29;20043;-91
2021/12/27 13:02:20;;;;;;;150.20;37.95;;;2.20;99.90;;;;;;4786941;29;20151;-89